sensor_id;sensor_type;location;lat;lon;timestamp;pressure;altitude;pressure_sealevel;temperature;humidity
46756;BME280;32506;52.826;-1.192;2022-12-07T00:01:13;101881.81;;;2.20;68.45
46756;BME280;32506;52.826;-1.192;2022-12-07T00:03:40;101881.09;;;2.18;68.61
46756;BME280;32506;52.826;-1.192;2022-12-07T00:06:07;101877.75;;;2.16;68.27
46756;BME280;32506;52.826;-1.192;2022-12-07T00:08:34;101886.66;;;2.15;68.61
46756;BME280;32506;52.826;-1.192;2022-12-07T00:11:24;101879.81;;;2.12;68.28
46756;BME280;32506;52.826;-1.192;2022-12-07T00:13:58;101877.19;;;2.12;68.00
46756;BME280;32506;52.826;-1.192;2022-12-07T00:16:26;101875.63;;;2.10;68.25
46756;BME280;32506;52.826;-1.192;2022-12-07T00:18:52;101873.13;;;2.08;68.04
46756;BME280;32506;52.826;-1.192;2022-12-07T00:21:21;101875.75;;;2.08;68.08
46756;BME280;32506;52.826;-1.192;2022-12-07T00:23:48;101872.38;;;2.06;68.41
46756;BME280;32506;52.826;-1.192;2022-12-07T00:26:32;101871.56;;;2.06;67.98
46756;BME280;32506;52.826;-1.192;2022-12-07T00:29:04;101879.56;;;2.04;67.91
46756;BME280;32506;52.826;-1.192;2022-12-07T00:31:33;101872.78;;;2.01;68.50
46756;BME280;32506;52.826;-1.192;2022-12-07T00:34:00;101865.81;;;2.00;68.56
46756;BME280;32506;52.826;-1.192;2022-12-07T00:36:26;101861.63;;;1.98;67.86
46756;BME280;32506;52.826;-1.192;2022-12-07T00:38:53;101855.50;;;1.97;68.25
46756;BME280;32506;52.826;-1.192;2022-12-07T00:41:20;101854.81;;;1.95;68.49
46756;BME280;32506;52.826;-1.192;2022-12-07T00:43:47;101853.13;;;1.94;67.64
46756;BME280;32506;52.826;-1.192;2022-12-07T00:46:15;101855.88;;;1.93;67.75
46756;BME280;32506;52.826;-1.192;2022-12-07T00:48:40;101854.22;;;1.92;67.66
46756;BME280;32506;52.826;-1.192;2022-12-07T00:51:06;101851.84;;;1.89;67.87
46756;BME280;32506;52.826;-1.192;2022-12-07T00:53:35;101859.88;;;1.87;67.60
46756;BME280;32506;52.826;-1.192;2022-12-07T00:56:26;101856.50;;;1.85;67.56
46756;BME280;32506;52.826;-1.192;2022-12-07T00:59:01;101847.03;;;1.82;67.90
46756;BME280;32506;52.826;-1.192;2022-12-07T01:01:29;101852.44;;;1.81;67.74
46756;BME280;32506;52.826;-1.192;2022-12-07T01:03:55;101850.06;;;1.78;67.81
46756;BME280;32506;52.826;-1.192;2022-12-07T01:06:22;101857.16;;;1.77;67.91
46756;BME280;32506;52.826;-1.192;2022-12-07T01:08:48;101860.88;;;1.75;67.87
46756;BME280;32506;52.826;-1.192;2022-12-07T01:11:16;101854.88;;;1.73;67.72
46756;BME280;32506;52.826;-1.192;2022-12-07T01:13:43;101855.00;;;1.71;67.64
46756;BME280;32506;52.826;-1.192;2022-12-07T01:16:11;101854.25;;;1.69;67.70
46756;BME280;32506;52.826;-1.192;2022-12-07T01:18:38;101849.25;;;1.66;67.40
46756;BME280;32506;52.826;-1.192;2022-12-07T01:21:04;101854.66;;;1.64;67.24
46756;BME280;32506;52.826;-1.192;2022-12-07T01:23:31;101852.13;;;1.63;67.45
46756;BME280;32506;52.826;-1.192;2022-12-07T01:25:58;101851.41;;;1.61;67.54
46756;BME280;32506;52.826;-1.192;2022-12-07T01:28:24;101846.25;;;1.59;67.28
46756;BME280;32506;52.826;-1.192;2022-12-07T01:31:03;101847.22;;;1.58;67.46
46756;BME280;32506;52.826;-1.192;2022-12-07T01:33:34;101843.16;;;1.54;67.29
46756;BME280;32506;52.826;-1.192;2022-12-07T01:38:34;101847.84;;;1.50;67.26
46756;BME280;32506;52.826;-1.192;2022-12-07T01:41:00;101848.94;;;1.48;66.82
46756;BME280;32506;52.826;-1.192;2022-12-07T01:43:27;101854.19;;;1.48;67.40
46756;BME280;32506;52.826;-1.192;2022-12-07T01:45:54;101851.66;;;1.46;67.28
46756;BME280;32506;52.826;-1.192;2022-12-07T01:48:24;101848.47;;;1.43;67.18
46756;BME280;32506;52.826;-1.192;2022-12-07T01:50:52;101849.41;;;1.42;67.26
46756;BME280;32506;52.826;-1.192;2022-12-07T01:53:19;101848.72;;;1.40;67.26
46756;BME280;32506;52.826;-1.192;2022-12-07T01:55:46;101850.59;;;1.38;67.45
46756;BME280;32506;52.826;-1.192;2022-12-07T01:58:13;101849.88;;;1.36;67.36
46756;BME280;32506;52.826;-1.192;2022-12-07T02:00:40;101843.78;;;1.35;67.17
46756;BME280;32506;52.826;-1.192;2022-12-07T02:03:11;101845.72;;;1.33;66.99
46756;BME280;32506;52.826;-1.192;2022-12-07T02:05:40;101841.41;;;1.32;67.19
46756;BME280;32506;52.826;-1.192;2022-12-07T02:08:07;101848.56;;;1.30;66.81
46756;BME280;32506;52.826;-1.192;2022-12-07T02:10:33;101849.53;;;1.29;67.32
46756;BME280;32506;52.826;-1.192;2022-12-07T02:13:20;101844.50;;;1.26;66.78
46756;BME280;32506;52.826;-1.192;2022-12-07T02:27:35;101830.38;;;1.15;67.41
46756;BME280;32506;52.826;-1.192;2022-12-07T02:30:08;101834.00;;;1.14;67.32
46756;BME280;32506;52.826;-1.192;2022-12-07T02:32:40;101827.88;;;1.14;67.58
46756;BME280;32506;52.826;-1.192;2022-12-07T02:35:18;101827.28;;;1.10;67.52
46756;BME280;32506;52.826;-1.192;2022-12-07T02:37:51;101831.00;;;1.08;67.24
46756;BME280;32506;52.826;-1.192;2022-12-07T02:42:48;101836.38;;;1.06;67.23
46756;BME280;32506;52.826;-1.192;2022-12-07T02:45:21;101830.38;;;1.04;67.01
46756;BME280;32506;52.826;-1.192;2022-12-07T02:47:51;101833.03;;;1.04;67.38
46756;BME280;32506;52.826;-1.192;2022-12-07T02:50:20;101823.56;;;1.02;67.84
46756;BME280;32506;52.826;-1.192;2022-12-07T02:52:46;101821.88;;;1.00;67.63
46756;BME280;32506;52.826;-1.192;2022-12-07T02:55:12;101826.31;;;1.00;67.15
46756;BME280;32506;52.826;-1.192;2022-12-07T02:58:32;101815.78;;;1.00;67.58
46756;BME280;32506;52.826;-1.192;2022-12-07T03:01:09;101811.47;;;0.99;67.28
46756;BME280;32506;52.826;-1.192;2022-12-07T03:03:39;101811.47;;;0.99;67.66
46756;BME280;32506;52.826;-1.192;2022-12-07T03:06:21;101808.97;;;0.97;67.74
46756;BME280;32506;52.826;-1.192;2022-12-07T03:08:52;101808.13;;;0.97;68.35
46756;BME280;32506;52.826;-1.192;2022-12-07T03:16:45;101806.34;;;0.97;68.36
46756;BME280;32506;52.826;-1.192;2022-12-07T03:19:17;101806.34;;;0.97;68.43
46756;BME280;32506;52.826;-1.192;2022-12-07T03:21:50;101801.06;;;0.97;68.75
46756;BME280;32506;52.826;-1.192;2022-12-07T03:24:21;101794.84;;;0.98;68.23
46756;BME280;32506;52.826;-1.192;2022-12-07T03:26:52;101791.38;;;0.98;68.77
46756;BME280;32506;52.826;-1.192;2022-12-07T03:29:28;101793.91;;;0.99;68.51
46756;BME280;32506;52.826;-1.192;2022-12-07T03:32:04;101790.41;;;0.99;68.44
46756;BME280;32506;52.826;-1.192;2022-12-07T03:34:34;101794.84;;;0.98;68.43
46756;BME280;32506;52.826;-1.192;2022-12-07T03:37:09;101791.28;;;0.99;69.10
46756;BME280;32506;52.826;-1.192;2022-12-07T03:39:45;101794.72;;;1.00;68.71
46756;BME280;32506;52.826;-1.192;2022-12-07T03:42:15;101790.41;;;0.99;68.52
46756;BME280;32506;52.826;-1.192;2022-12-07T03:44:41;101780.84;;;0.98;68.82
46756;BME280;32506;52.826;-1.192;2022-12-07T03:50:19;101776.53;;;0.97;68.13
46756;BME280;32506;52.826;-1.192;2022-12-07T03:52:59;101780.00;;;0.97;68.29
46756;BME280;32506;52.826;-1.192;2022-12-07T03:55:31;101781.09;;;0.95;67.96
46756;BME280;32506;52.826;-1.192;2022-12-07T03:58:03;101775.13;;;0.93;68.58
46756;BME280;32506;52.826;-1.192;2022-12-07T04:00:29;101780.38;;;0.93;68.54
46756;BME280;32506;52.826;-1.192;2022-12-07T04:02:56;101775.34;;;0.90;67.50
46756;BME280;32506;52.826;-1.192;2022-12-07T04:05:21;101775.47;;;0.88;68.29
46756;BME280;32506;52.826;-1.192;2022-12-07T04:07:47;101778.22;;;0.87;67.56
46756;BME280;32506;52.826;-1.192;2022-12-07T04:10:13;101772.13;;;0.86;67.84
46756;BME280;32506;52.826;-1.192;2022-12-07T04:12:39;101771.38;;;0.84;67.82
46756;BME280;32506;52.826;-1.192;2022-12-07T04:15:05;101765.31;;;0.83;67.64
46756;BME280;32506;52.826;-1.192;2022-12-07T04:17:30;101764.56;;;0.81;67.35
46756;BME280;32506;52.826;-1.192;2022-12-07T04:19:56;101777.03;;;0.79;67.45
46756;BME280;32506;52.826;-1.192;2022-12-07T04:22:21;101774.50;;;0.78;67.78
46756;BME280;32506;52.826;-1.192;2022-12-07T04:24:47;101776.41;;;0.76;67.33
46756;BME280;32506;52.826;-1.192;2022-12-07T04:27:12;101773.91;;;0.74;67.71
46756;BME280;32506;52.826;-1.192;2022-12-07T04:29:37;101774.03;;;0.73;67.51
46756;BME280;32506;52.826;-1.192;2022-12-07T04:32:03;101778.56;;;0.71;67.28
46756;BME280;32506;52.826;-1.192;2022-12-07T04:34:29;101777.00;;;0.68;66.94
46756;BME280;32506;52.826;-1.192;2022-12-07T04:36:54;101769.22;;;0.66;66.81
46756;BME280;32506;52.826;-1.192;2022-12-07T04:39:26;101776.41;;;0.64;66.70
46756;BME280;32506;52.826;-1.192;2022-12-07T04:41:52;101784.41;;;0.63;66.72
46756;BME280;32506;52.826;-1.192;2022-12-07T04:44:18;101766.25;;;0.60;67.23
46756;BME280;32506;52.826;-1.192;2022-12-07T04:46:45;101771.75;;;0.57;67.16
46756;BME280;32506;52.826;-1.192;2022-12-07T04:49:11;101776.28;;;0.55;66.98
46756;BME280;32506;52.826;-1.192;2022-12-07T04:51:37;101761.69;;;0.50;66.63
46756;BME280;32506;52.826;-1.192;2022-12-07T04:54:03;101771.38;;;0.50;66.65
46756;BME280;32506;52.826;-1.192;2022-12-07T04:56:29;101764.56;;;0.47;66.40
46756;BME280;32506;52.826;-1.192;2022-12-07T04:58:54;101772.56;;;0.46;66.72
46756;BME280;32506;52.826;-1.192;2022-12-07T05:01:21;101767.53;;;0.43;66.87
46756;BME280;32506;52.826;-1.192;2022-12-07T05:03:47;101765.00;;;0.41;66.62
46756;BME280;32506;52.826;-1.192;2022-12-07T05:06:13;101762.50;;;0.40;66.69
46756;BME280;32506;52.826;-1.192;2022-12-07T05:08:38;101760.94;;;0.37;66.48
46756;BME280;32506;52.826;-1.192;2022-12-07T05:11:04;101754.00;;;0.36;66.54
46756;BME280;32506;52.826;-1.192;2022-12-07T05:13:31;101762.00;;;0.35;66.51
46756;BME280;32506;52.826;-1.192;2022-12-07T05:15:56;101762.25;;;0.31;66.57
46756;BME280;32506;52.826;-1.192;2022-12-07T05:18:22;101763.19;;;0.30;67.04
46756;BME280;32506;52.826;-1.192;2022-12-07T05:20:48;101763.31;;;0.29;66.70
46756;BME280;32506;52.826;-1.192;2022-12-07T05:23:13;101761.75;;;0.26;67.08
46756;BME280;32506;52.826;-1.192;2022-12-07T05:25:38;101767.97;;;0.25;67.05
46756;BME280;32506;52.826;-1.192;2022-12-07T05:28:04;101770.84;;;0.22;66.98
46756;BME280;32506;52.826;-1.192;2022-12-07T05:30:30;101763.91;;;0.21;66.71
46756;BME280;32506;52.826;-1.192;2022-12-07T05:32:56;101765.81;;;0.19;66.88
46756;BME280;32506;52.826;-1.192;2022-12-07T05:35:21;101764.13;;;0.18;66.53
46756;BME280;32506;52.826;-1.192;2022-12-07T05:37:47;101765.19;;;0.15;66.38
46756;BME280;32506;52.826;-1.192;2022-12-07T05:40:13;101761.75;;;0.15;66.50
46756;BME280;32506;52.826;-1.192;2022-12-07T05:42:39;101755.75;;;0.13;66.71
46756;BME280;32506;52.826;-1.192;2022-12-07T05:45:06;101752.41;;;0.11;66.57
46756;BME280;32506;52.826;-1.192;2022-12-07T05:47:31;101764.69;;;0.10;66.88
46756;BME280;32506;52.826;-1.192;2022-12-07T05:49:57;101761.38;;;0.08;66.86
46756;BME280;32506;52.826;-1.192;2022-12-07T05:52:22;101751.91;;;0.06;66.96
46756;BME280;32506;52.826;-1.192;2022-12-07T05:54:48;101756.31;;;0.05;66.43
46756;BME280;32506;52.826;-1.192;2022-12-07T05:57:13;101758.25;;;0.03;66.98
46756;BME280;32506;52.826;-1.192;2022-12-07T05:59:38;101750.59;;;0.00;66.43
46756;BME280;32506;52.826;-1.192;2022-12-07T06:02:13;101754.16;;;-0.01;66.22
46756;BME280;32506;52.826;-1.192;2022-12-07T06:04:44;101750.09;;;-0.05;66.51
46756;BME280;32506;52.826;-1.192;2022-12-07T06:07:11;101750.22;;;-0.07;66.81
46756;BME280;32506;52.826;-1.192;2022-12-07T06:09:37;101750.31;;;-0.08;66.23
46756;BME280;32506;52.826;-1.192;2022-12-07T06:12:03;101748.66;;;-0.09;66.53
46756;BME280;32506;52.826;-1.192;2022-12-07T06:14:48;101740.97;;;-0.12;66.51
46756;BME280;32506;52.826;-1.192;2022-12-07T06:17:14;101748.97;;;-0.14;66.74
46756;BME280;32506;52.826;-1.192;2022-12-07T06:19:40;101746.47;;;-0.15;66.58
46756;BME280;32506;52.826;-1.192;2022-12-07T06:22:06;101746.59;;;-0.17;66.13
46756;BME280;32506;52.826;-1.192;2022-12-07T06:24:32;101744.19;;;-0.20;66.04
46756;BME280;32506;52.826;-1.192;2022-12-07T06:26:58;101739.88;;;-0.21;66.45
46756;BME280;32506;52.826;-1.192;2022-12-07T06:29:23;101748.81;;;-0.24;66.21
46756;BME280;32506;52.826;-1.192;2022-12-07T06:31:49;101755.03;;;-0.25;66.19
46756;BME280;32506;52.826;-1.192;2022-12-07T06:34:17;101751.69;;;-0.27;66.38
46756;BME280;32506;52.826;-1.192;2022-12-07T06:36:44;101745.69;;;-0.29;66.54
46756;BME280;32506;52.826;-1.192;2022-12-07T06:39:10;101749.25;;;-0.30;66.40
46756;BME280;32506;52.826;-1.192;2022-12-07T06:41:37;101739.81;;;-0.32;66.72
46756;BME280;32506;52.826;-1.192;2022-12-07T06:44:04;101742.44;;;-0.32;66.62
46756;BME280;32506;52.826;-1.192;2022-12-07T06:46:30;101739.94;;;-0.34;66.36
46756;BME280;32506;52.826;-1.192;2022-12-07T06:48:55;101743.63;;;-0.37;66.27
46756;BME280;32506;52.826;-1.192;2022-12-07T06:51:21;101739.31;;;-0.38;66.57
46756;BME280;32506;52.826;-1.192;2022-12-07T06:53:46;101736.81;;;-0.39;66.28
46756;BME280;32506;52.826;-1.192;2022-12-07T06:56:12;101743.03;;;-0.40;66.54
46756;BME280;32506;52.826;-1.192;2022-12-07T06:58:38;101739.66;;;-0.42;66.44
46756;BME280;32506;52.826;-1.192;2022-12-07T07:01:09;101739.66;;;-0.42;66.30
46756;BME280;32506;52.826;-1.192;2022-12-07T07:03:34;101737.28;;;-0.45;66.44
46756;BME280;32506;52.826;-1.192;2022-12-07T07:06:00;101736.53;;;-0.47;66.18
46756;BME280;32506;52.826;-1.192;2022-12-07T07:08:25;101742.72;;;-0.48;66.18
46756;BME280;32506;52.826;-1.192;2022-12-07T07:10:50;101745.47;;;-0.50;66.43
46756;BME280;32506;52.826;-1.192;2022-12-07T07:13:16;101741.19;;;-0.51;66.49
46756;BME280;32506;52.826;-1.192;2022-12-07T07:15:41;101745.81;;;-0.55;66.04
46756;BME280;32506;52.826;-1.192;2022-12-07T07:18:07;101743.19;;;-0.55;66.16
46756;BME280;32506;52.826;-1.192;2022-12-07T07:20:33;101741.50;;;-0.56;66.34
46756;BME280;32506;52.826;-1.192;2022-12-07T07:22:58;101742.56;;;-0.58;66.18
46756;BME280;32506;52.826;-1.192;2022-12-07T07:25:23;101740.06;;;-0.60;66.12
46756;BME280;32506;52.826;-1.192;2022-12-07T07:27:49;101737.53;;;-0.61;66.39
46756;BME280;32506;52.826;-1.192;2022-12-07T07:30:14;101739.31;;;-0.62;66.22
46756;BME280;32506;52.826;-1.192;2022-12-07T07:32:40;101737.78;;;-0.64;66.49
46756;BME280;32506;52.826;-1.192;2022-12-07T07:35:06;101735.16;;;-0.64;66.39
46756;BME280;32506;52.826;-1.192;2022-12-07T07:37:31;101729.97;;;-0.66;66.19
46756;BME280;32506;52.826;-1.192;2022-12-07T07:39:57;101740.50;;;-0.66;66.32
46756;BME280;32506;52.826;-1.192;2022-12-07T07:42:22;101730.97;;;-0.67;66.43
46756;BME280;32506;52.826;-1.192;2022-12-07T07:44:47;101729.28;;;-0.68;66.38
46756;BME280;32506;52.826;-1.192;2022-12-07T07:47:13;101738.84;;;-0.67;66.35
46756;BME280;32506;52.826;-1.192;2022-12-07T07:49:38;101730.22;;;-0.69;66.35
46756;BME280;32506;52.826;-1.192;2022-12-07T07:52:05;101728.53;;;-0.70;66.44
46756;BME280;32506;52.826;-1.192;2022-12-07T07:54:31;101722.34;;;-0.69;66.70
46756;BME280;32506;52.826;-1.192;2022-12-07T07:56:57;101725.91;;;-0.70;66.41
46756;BME280;32506;52.826;-1.192;2022-12-07T07:59:22;101718.16;;;-0.72;66.71
46756;BME280;32506;52.826;-1.192;2022-12-07T08:01:48;101719.94;;;-0.72;66.28
46756;BME280;32506;52.826;-1.192;2022-12-07T08:04:14;101714.69;;;-0.72;66.67
46756;BME280;32506;52.826;-1.192;2022-12-07T08:06:39;101722.56;;;-0.72;66.77
46756;BME280;32506;52.826;-1.192;2022-12-07T08:09:07;101720.88;;;-0.73;66.56
46756;BME280;32506;52.826;-1.192;2022-12-07T08:11:33;101730.44;;;-0.72;66.89
46756;BME280;32506;52.826;-1.192;2022-12-07T08:13:59;101726.97;;;-0.73;66.78
46756;BME280;32506;52.826;-1.192;2022-12-07T08:16:24;101732.22;;;-0.73;67.05
46756;BME280;32506;52.826;-1.192;2022-12-07T08:18:49;101729.50;;;-0.71;67.27
46756;BME280;32506;52.826;-1.192;2022-12-07T08:21:15;101733.91;;;-0.72;66.93
46756;BME280;32506;52.826;-1.192;2022-12-07T08:23:41;101732.13;;;-0.71;67.09
46756;BME280;32506;52.826;-1.192;2022-12-07T08:26:15;101736.41;;;-0.70;67.22
46756;BME280;32506;52.826;-1.192;2022-12-07T08:28:41;101730.22;;;-0.69;67.67
46756;BME280;32506;52.826;-1.192;2022-12-07T08:31:12;101729.28;;;-0.68;67.42
46756;BME280;32506;52.826;-1.192;2022-12-07T08:33:38;101733.47;;;-0.65;67.55
46756;BME280;32506;52.826;-1.192;2022-12-07T08:36:09;101731.56;;;-0.63;68.01
46756;BME280;32506;52.826;-1.192;2022-12-07T08:38:36;101734.91;;;-0.61;68.17
46756;BME280;32506;52.826;-1.192;2022-12-07T08:41:02;101734.69;;;-0.58;67.97
46756;BME280;32506;52.826;-1.192;2022-12-07T08:43:28;101736.25;;;-0.56;68.17
46756;BME280;32506;52.826;-1.192;2022-12-07T08:48:29;101737.47;;;-0.48;68.24
46756;BME280;32506;52.826;-1.192;2022-12-07T08:50:55;101731.03;;;-0.44;68.25
46756;BME280;32506;52.826;-1.192;2022-12-07T08:53:21;101743.97;;;-0.41;67.89
46756;BME280;32506;52.826;-1.192;2022-12-07T08:55:48;101740.16;;;-0.37;67.45
46756;BME280;32506;52.826;-1.192;2022-12-07T08:58:13;101742.44;;;-0.32;67.63
46756;BME280;32506;52.826;-1.192;2022-12-07T09:00:39;101740.44;;;-0.29;67.78
46756;BME280;32506;52.826;-1.192;2022-12-07T09:03:04;101733.19;;;-0.25;67.88
46756;BME280;32506;52.826;-1.192;2022-12-07T09:05:30;101732.94;;;-0.22;68.16
46756;BME280;32506;52.826;-1.192;2022-12-07T09:08:00;101724.69;;;-0.18;68.45
46756;BME280;32506;52.826;-1.192;2022-12-07T09:10:27;101727.94;;;-0.14;68.34
46756;BME280;32506;52.826;-1.192;2022-12-07T09:12:53;101725.09;;;-0.11;68.37
46756;BME280;32506;52.826;-1.192;2022-12-07T09:15:19;101728.22;;;-0.06;68.53
46756;BME280;32506;52.826;-1.192;2022-12-07T09:17:44;101729.66;;;-0.02;68.98
46756;BME280;32506;52.826;-1.192;2022-12-07T09:20:10;101722.38;;;0.02;68.86
46756;BME280;32506;52.826;-1.192;2022-12-07T09:22:36;101726.34;;;0.08;69.48
46756;BME280;32506;52.826;-1.192;2022-12-07T09:25:03;101726.00;;;0.12;69.45
46756;BME280;32506;52.826;-1.192;2022-12-07T09:27:29;101722.31;;;0.15;69.86
46756;BME280;32506;52.826;-1.192;2022-12-07T09:29:54;101721.81;;;0.21;70.59
46756;BME280;32506;52.826;-1.192;2022-12-07T09:32:20;101716.09;;;0.27;70.71
46756;BME280;32506;52.826;-1.192;2022-12-07T09:34:46;101714.78;;;0.33;70.17
46756;BME280;32506;52.826;-1.192;2022-12-07T09:37:11;101706.44;;;0.39;70.72
46756;BME280;32506;52.826;-1.192;2022-12-07T09:39:40;101707.03;;;0.43;70.97
46756;BME280;32506;52.826;-1.192;2022-12-07T09:42:07;101708.38;;;0.48;71.02
46756;BME280;32506;52.826;-1.192;2022-12-07T09:44:34;101713.00;;;0.56;70.84
46756;BME280;32506;52.826;-1.192;2022-12-07T09:47:00;101704.91;;;0.59;71.58
46756;BME280;32506;52.826;-1.192;2022-12-07T09:49:28;101704.41;;;0.65;71.36
46756;BME280;32506;52.826;-1.192;2022-12-07T09:52:17;101703.06;;;0.71;71.59
46756;BME280;32506;52.826;-1.192;2022-12-07T09:54:47;101709.66;;;0.77;71.67
46756;BME280;32506;52.826;-1.192;2022-12-07T09:57:13;101712.66;;;0.83;71.57
46756;BME280;32506;52.826;-1.192;2022-12-07T09:59:39;101708.69;;;0.89;71.32
46756;BME280;32506;52.826;-1.192;2022-12-07T10:02:38;101710.72;;;0.97;71.39
46756;BME280;32506;52.826;-1.192;2022-12-07T10:05:10;101706.03;;;1.00;71.54
46756;BME280;32506;52.826;-1.192;2022-12-07T10:07:38;101705.69;;;1.05;71.67
46756;BME280;32506;52.826;-1.192;2022-12-07T10:10:09;101703.53;;;1.10;71.30
46756;BME280;32506;52.826;-1.192;2022-12-07T10:12:58;101713.41;;;1.18;71.22
46756;BME280;32506;52.826;-1.192;2022-12-07T10:15:45;101704.31;;;1.22;71.26
46756;BME280;32506;52.826;-1.192;2022-12-07T10:18:21;101704.09;;;1.25;71.53
46756;BME280;32506;52.826;-1.192;2022-12-07T10:23:28;101706.81;;;1.35;71.08
46756;BME280;32506;52.826;-1.192;2022-12-07T10:25:53;101714.22;;;1.41;71.47
46756;BME280;32506;52.826;-1.192;2022-12-07T10:28:21;101705.09;;;1.45;71.32
46756;BME280;32506;52.826;-1.192;2022-12-07T10:33:36;101705.16;;;1.55;71.20
46756;BME280;32506;52.826;-1.192;2022-12-07T10:41:28;101707.38;;;1.71;70.89
46756;BME280;32506;52.826;-1.192;2022-12-07T10:43:55;101700.75;;;1.77;71.02
46756;BME280;32506;52.826;-1.192;2022-12-07T10:51:53;101695.22;;;2.01;70.80
46756;BME280;32506;52.826;-1.192;2022-12-07T10:54:43;101686.56;;;2.10;70.75
46756;BME280;32506;52.826;-1.192;2022-12-07T11:03:36;101677.16;;;2.48;70.86
46756;BME280;32506;52.826;-1.192;2022-12-07T11:08:33;101675.63;;;2.87;71.28
46756;BME280;32506;52.826;-1.192;2022-12-07T11:11:06;101668.00;;;3.13;71.49
46756;BME280;32506;52.826;-1.192;2022-12-07T11:13:37;101669.16;;;3.40;71.61
46756;BME280;32506;52.826;-1.192;2022-12-07T11:22:21;101643.72;;;4.15;72.49
46756;BME280;32506;52.826;-1.192;2022-12-07T11:27:47;101643.25;;;4.85;72.97
46756;BME280;32506;52.826;-1.192;2022-12-07T11:30:19;101640.63;;;5.21;72.78
46756;BME280;32506;52.826;-1.192;2022-12-07T11:38:15;101618.97;;;6.58;71.31
46756;BME280;32506;52.826;-1.192;2022-12-07T11:40:46;101616.72;;;6.87;70.36
46756;BME280;32506;52.826;-1.192;2022-12-07T11:43:27;101612.44;;;7.11;70.39
46756;BME280;32506;52.826;-1.192;2022-12-07T11:46:06;101615.78;;;7.30;69.41
46756;BME280;32506;52.826;-1.192;2022-12-07T11:48:38;101606.28;;;7.44;68.98
46756;BME280;32506;52.826;-1.192;2022-12-07T11:51:09;101596.84;;;7.49;69.65
46756;BME280;32506;52.826;-1.192;2022-12-07T11:53:49;101593.00;;;7.52;69.18
46756;BME280;32506;52.826;-1.192;2022-12-07T11:56:20;101591.19;;;7.52;69.42
46756;BME280;32506;52.826;-1.192;2022-12-07T11:58:56;101590.00;;;7.55;69.59
46756;BME280;32506;52.826;-1.192;2022-12-07T12:06:53;101569.31;;;8.46;67.93
46756;BME280;32506;52.826;-1.192;2022-12-07T12:09:24;101571.69;;;8.87;66.84
46756;BME280;32506;52.826;-1.192;2022-12-07T12:20:42;101550.97;;;12.12;63.79
46756;BME280;32506;52.826;-1.192;2022-12-07T12:23:43;101554.69;;;12.86;61.39
46756;BME280;32506;52.826;-1.192;2022-12-07T12:26:03;101556.19;;;13.49;59.72
46756;BME280;32506;52.826;-1.192;2022-12-07T12:39:15;101531.44;;;13.40;59.56
46756;BME280;32506;52.826;-1.192;2022-12-07T12:46:56;101512.41;;;12.88;61.24
46756;BME280;32506;52.826;-1.192;2022-12-07T12:51:53;101518.34;;;12.57;61.83
46756;BME280;32506;52.826;-1.192;2022-12-07T12:54:33;101507.63;;;12.57;61.76
46756;BME280;32506;52.826;-1.192;2022-12-07T12:57:22;101512.19;;;12.83;61.95
46756;BME280;32506;52.826;-1.192;2022-12-07T13:02:47;101508.78;;;13.88;60.10
46756;BME280;32506;52.826;-1.192;2022-12-07T13:13:08;101489.56;;;16.31;55.03
46756;BME280;32506;52.826;-1.192;2022-12-07T13:18:41;101479.75;;;17.50;52.42
46756;BME280;32506;52.826;-1.192;2022-12-07T13:26:17;101465.94;;;18.78;48.13
46756;BME280;32506;52.826;-1.192;2022-12-07T13:34:40;101452.56;;;19.67;47.25
46756;BME280;32506;52.826;-1.192;2022-12-07T13:37:18;101450.16;;;19.88;46.37
46756;BME280;32506;52.826;-1.192;2022-12-07T13:39:49;101445.97;;;20.02;45.98
46756;BME280;32506;52.826;-1.192;2022-12-07T13:44:55;101444.19;;;20.13;46.21
46756;BME280;32506;52.826;-1.192;2022-12-07T13:47:41;101430.34;;;20.15;45.98
46756;BME280;32506;52.826;-1.192;2022-12-07T13:50:30;101425.13;;;20.08;45.85
46756;BME280;32506;52.826;-1.192;2022-12-07T13:53:00;101431.25;;;19.98;46.78
46756;BME280;32506;52.826;-1.192;2022-12-07T13:55:27;101431.66;;;19.85;46.96
46756;BME280;32506;52.826;-1.192;2022-12-07T13:57:54;101430.13;;;19.72;47.51
46756;BME280;32506;52.826;-1.192;2022-12-07T14:00:22;101429.72;;;19.58;47.32
46756;BME280;32506;52.826;-1.192;2022-12-07T14:02:59;101419.47;;;19.43;47.44
46756;BME280;32506;52.826;-1.192;2022-12-07T14:08:04;101406.13;;;19.14;47.90
46756;BME280;32506;52.826;-1.192;2022-12-07T14:10:34;101401.06;;;19.01;48.13
46756;BME280;32506;52.826;-1.192;2022-12-07T14:13:01;101391.13;;;18.89;48.61
46756;BME280;32506;52.826;-1.192;2022-12-07T14:15:30;101396.38;;;18.79;48.81
46756;BME280;32506;52.826;-1.192;2022-12-07T14:17:57;101397.28;;;18.68;49.14
46756;BME280;32506;52.826;-1.192;2022-12-07T14:22:55;101400.25;;;18.49;49.21
46756;BME280;32506;52.826;-1.192;2022-12-07T14:25:26;101397.88;;;18.36;49.49
46756;BME280;32506;52.826;-1.192;2022-12-07T14:30:18;101406.75;;;18.02;50.27
46756;BME280;32506;52.826;-1.192;2022-12-07T14:32:44;101405.53;;;17.81;50.81
46756;BME280;32506;52.826;-1.192;2022-12-07T14:35:16;101401.03;;;17.58;50.97
46756;BME280;32506;52.826;-1.192;2022-12-07T14:37:45;101392.97;;;17.34;51.31
46756;BME280;32506;52.826;-1.192;2022-12-07T14:40:19;101391.38;;;17.09;51.21
46756;BME280;32506;52.826;-1.192;2022-12-07T14:42:46;101400.75;;;16.83;51.74
46756;BME280;32506;52.826;-1.192;2022-12-07T14:45:16;101398.97;;;16.53;52.03
46756;BME280;32506;52.826;-1.192;2022-12-07T14:47:43;101400.19;;;16.27;51.99
46756;BME280;32506;52.826;-1.192;2022-12-07T14:50:11;101394.97;;;16.02;52.34
46756;BME280;32506;52.826;-1.192;2022-12-07T14:52:38;101395.91;;;15.77;52.17
46756;BME280;32506;52.826;-1.192;2022-12-07T14:55:04;101391.66;;;15.51;52.10
46756;BME280;32506;52.826;-1.192;2022-12-07T14:57:30;101386.81;;;15.22;52.51
46756;BME280;32506;52.826;-1.192;2022-12-07T14:59:55;101383.34;;;14.97;52.68
46756;BME280;32506;52.826;-1.192;2022-12-07T15:02:21;101378.44;;;14.68;52.54
46756;BME280;32506;52.826;-1.192;2022-12-07T15:04:46;101365.19;;;14.41;52.94
46756;BME280;32506;52.826;-1.192;2022-12-07T15:07:19;101356.28;;;14.16;52.23
46756;BME280;32506;52.826;-1.192;2022-12-07T15:09:45;101360.97;;;13.88;53.15